Time;durP1;ratioP1;P1;durP2;ratioP2;P2;SDS_P1;SDS_P2;PMS_P1;PMS_P2;Temp;Humidity;BMP_temperature;BMP_pressure;BME280_temperature;BME280_humidity;BME280_pressure;Samples;Min_cycle;Max_cycle;Signal;HPM_P1;HPM_P2
2021/08/09 00:02:06;;;;;;;2.50;2.30;;;11.50;99.90;;;;;;5049542;28;20186;-79
2021/08/09 00:04:34;;;;;;;3.90;3.50;;;11.60;99.90;;;;;;5057176;28;20573;-79
2021/08/09 00:07:00;;;;;;;3.30;2.33;;;11.40;99.90;;;;;;5055142;28;20192;-79
2021/08/09 00:09:26;;;;;;;2.70;2.50;;;11.50;99.90;;;;;;5049320;28;20190;-79
2021/08/09 00:11:52;;;;;;;4.03;2.50;;;11.60;99.90;;;;;;5057167;28;20175;-78
2021/08/09 00:14:17;;;;;;;3.20;2.80;;;11.60;99.90;;;;;;5057319;28;20273;-79
2021/08/09 00:16:43;;;;;;;2.87;2.60;;;11.50;99.90;;;;;;5055584;28;20200;-80
2021/08/09 00:19:08;;;;;;;3.40;3.10;;;11.50;99.90;;;;;;5045143;28;20189;-79
2021/08/09 00:21:34;;;;;;;2.90;2.70;;;11.60;99.90;;;;;;5057736;28;20182;-79
2021/08/09 00:23:59;;;;;;;3.13;2.80;;;11.50;99.90;;;;;;5056931;28;20198;-79
2021/08/09 00:26:29;;;;;;;2.63;2.43;;;11.60;99.90;;;;;;5052311;28;20190;-80
2021/08/09 00:28:54;;;;;;;3.35;2.22;;;11.60;99.90;;;;;;5045210;28;20194;-79
2021/08/09 00:31:20;;;;;;;2.63;2.43;;;11.70;99.90;;;;;;5050363;28;20214;-77
2021/08/09 00:33:45;;;;;;;2.40;2.20;;;11.60;99.90;;;;;;5050259;28;20194;-77
2021/08/09 00:36:11;;;;;;;2.90;2.70;;;11.40;99.90;;;;;;5053793;28;20194;-77
2021/08/09 00:38:36;;;;;;;3.23;2.77;;;11.50;99.90;;;;;;5056581;28;20232;-77
2021/08/09 00:41:02;;;;;;;4.40;4.00;;;11.30;99.90;;;;;;5050430;28;20193;-77
2021/08/09 00:43:28;;;;;;;3.57;3.00;;;11.10;99.90;;;;;;5055367;28;20197;-77
2021/08/09 00:45:53;;;;;;;3.70;3.13;;;11.40;99.90;;;;;;5056811;28;20279;-77
2021/08/09 00:48:19;;;;;;;4.00;3.10;;;11.20;99.90;;;;;;5048940;28;20189;-78
2021/08/09 00:50:44;;;;;;;3.53;3.23;;;11.10;99.90;;;;;;5050178;28;20301;-78
2021/08/09 00:53:10;;;;;;;3.20;2.63;;;11.10;99.90;;;;;;5051925;28;20268;-78
2021/08/09 00:55:36;;;;;;;5.30;2.80;;;11.20;99.90;;;;;;5051896;28;20181;-79
2021/08/09 00:58:02;;;;;;;3.65;2.92;;;11.20;99.90;;;;;;5055577;28;20186;-78
2021/08/09 01:00:28;;;;;;;3.10;2.80;;;11.30;99.90;;;;;;5049964;28;20597;-78
2021/08/09 01:02:53;;;;;;;3.27;2.80;;;11.30;99.90;;;;;;5055477;28;21006;-78
2021/08/09 01:05:18;;;;;;;3.67;3.00;;;11.40;99.90;;;;;;5060491;28;20293;-78
2021/08/09 01:08:24;;;;;;;2.97;2.77;;;11.30;99.90;;;;;;5052721;28;20207;-78
2021/08/09 01:11:01;;;;;;;2.47;2.30;;;11.60;99.90;;;;;;5052005;28;20863;-78
2021/08/09 01:14:09;;;;;;;3.22;2.90;;;11.30;99.90;;;;;;5058465;28;20210;-78
2021/08/09 01:16:37;;;;;;;3.40;2.55;;;11.50;99.90;;;;;;5028896;28;20189;-78
2021/08/09 01:19:28;;;;;;;3.58;2.30;;;11.20;99.90;;;;;;5048273;28;20269;-78
2021/08/09 01:22:06;;;;;;;2.88;2.60;;;11.20;99.90;;;;;;5045347;28;20186;-78
2021/08/09 01:24:39;;;;;;;2.75;2.55;;;11.10;99.90;;;;;;5047099;28;20193;-78
2021/08/09 01:27:29;;;;;;;4.80;2.72;;;11.00;99.90;;;;;;5057543;28;20182;-78
2021/08/09 01:30:00;;;;;;;2.80;2.60;;;10.90;99.90;;;;;;5057107;28;20220;-78
2021/08/09 01:32:26;;;;;;;3.13;1.90;;;10.70;99.90;;;;;;5050951;28;20233;-79
2021/08/09 01:34:53;;;;;;;3.33;3.03;;;11.10;99.90;;;;;;5057775;28;20281;-78
2021/08/09 01:37:20;;;;;;;2.92;2.58;;;10.60;99.90;;;;;;5057595;28;20270;-78
2021/08/09 01:39:46;;;;;;;2.40;2.20;;;10.90;99.90;;;;;;5062272;28;20562;-77
2021/08/09 01:42:14;;;;;;;3.03;2.75;;;10.90;99.90;;;;;;5045617;28;20197;-77
2021/08/09 01:44:40;;;;;;;2.85;2.60;;;10.80;99.90;;;;;;5049488;28;20675;-77
2021/08/09 01:47:06;;;;;;;4.53;3.10;;;10.80;99.90;;;;;;5046941;28;20183;-77
2021/08/09 01:49:32;;;;;;;2.63;2.42;;;10.90;99.90;;;;;;5048216;28;20198;-77
2021/08/09 01:52:00;;;;;;;4.07;2.13;;;10.80;99.90;;;;;;5048330;28;20615;-76
2021/08/09 01:54:26;;;;;;;2.42;2.22;;;10.90;99.90;;;;;;5045928;28;20200;-77
2021/08/09 01:56:52;;;;;;;2.70;2.50;;;10.90;99.90;;;;;;5048684;28;20725;-77
2021/08/09 01:59:20;;;;;;;4.90;2.35;;;10.80;99.90;;;;;;5049984;28;20189;-77
2021/08/09 02:01:46;;;;;;;4.70;2.25;;;10.70;99.90;;;;;;5048395;28;20191;-77
2021/08/09 02:04:12;;;;;;;2.30;2.00;;;10.70;99.90;;;;;;5051985;28;20197;-77
2021/08/09 02:06:37;;;;;;;3.00;2.60;;;10.80;99.90;;;;;;5047413;28;20675;-77
2021/08/09 02:09:06;;;;;;;2.90;2.57;;;10.80;99.90;;;;;;5047018;28;20429;-77
2021/08/09 02:11:58;;;;;;;2.78;2.50;;;10.60;99.90;;;;;;5048319;28;20226;-77
2021/08/09 02:14:28;;;;;;;4.93;2.38;;;10.80;99.90;;;;;;5044928;28;20194;-77
2021/08/09 02:17:01;;;;;;;2.70;2.50;;;10.70;99.90;;;;;;5037500;28;20190;-77
2021/08/09 02:19:45;;;;;;;2.67;2.47;;;10.50;99.90;;;;;;5046287;28;20186;-77
2021/08/09 02:22:30;;;;;;;3.95;2.40;;;10.90;99.90;;;;;;5041209;28;20187;-76
2021/08/09 02:25:16;;;;;;;2.38;2.17;;;10.80;99.90;;;;;;5041670;28;20205;-77
2021/08/09 02:27:49;;;;;;;3.28;3.08;;;10.60;99.90;;;;;;5049532;28;20248;-77
2021/08/09 02:30:18;;;;;;;2.88;2.55;;;10.60;99.90;;;;;;5047879;28;20211;-77
2021/08/09 02:32:45;;;;;;;2.90;2.38;;;10.90;99.90;;;;;;5050782;28;20198;-77
2021/08/09 02:35:15;;;;;;;3.60;2.50;;;10.80;99.90;;;;;;5046092;28;20183;-77
2021/08/09 02:37:43;;;;;;;2.65;2.38;;;10.60;99.90;;;;;;5043802;28;20305;-77
2021/08/09 02:40:10;;;;;;;2.50;2.30;;;10.60;99.90;;;;;;5046057;28;20194;-77
2021/08/09 02:42:36;;;;;;;3.28;2.33;;;10.90;99.90;;;;;;5047563;28;20270;-78
2021/08/09 02:45:02;;;;;;;2.70;2.17;;;10.50;99.90;;;;;;5047433;28;20708;-77
2021/08/09 02:47:30;;;;;;;3.53;2.15;;;10.50;99.90;;;;;;5045546;28;20273;-77
2021/08/09 02:49:58;;;;;;;3.00;2.30;;;10.70;99.90;;;;;;5045704;28;20628;-76
2021/08/09 02:52:24;;;;;;;3.45;2.13;;;10.70;99.90;;;;;;5049598;28;20665;-77
2021/08/09 02:54:50;;;;;;;2.45;2.25;;;10.40;99.90;;;;;;5047334;28;20651;-77
2021/08/09 02:57:18;;;;;;;2.37;2.17;;;10.80;99.90;;;;;;5044125;28;20194;-77
2021/08/09 02:59:43;;;;;;;3.88;2.22;;;10.60;99.90;;;;;;5047255;28;20828;-77
2021/08/09 03:02:11;;;;;;;3.07;2.77;;;10.70;99.90;;;;;;5045480;28;20219;-76
2021/08/09 03:04:39;;;;;;;3.00;2.70;;;10.60;99.90;;;;;;5047476;28;20562;-78
2021/08/09 03:07:07;;;;;;;2.40;2.20;;;10.50;99.90;;;;;;5045153;28;20269;-77
2021/08/09 03:09:34;;;;;;;3.20;2.40;;;10.30;99.90;;;;;;5045274;28;20292;-76
2021/08/09 03:12:00;;;;;;;3.42;2.60;;;10.10;99.90;;;;;;5047151;28;20247;-79
2021/08/09 03:14:30;;;;;;;4.45;2.67;;;10.20;99.90;;;;;;5046283;28;20520;-77
2021/08/09 03:16:55;;;;;;;2.40;2.20;;;10.50;99.90;;;;;;5043354;28;20186;-77
2021/08/09 03:19:21;;;;;;;2.80;2.60;;;10.30;99.90;;;;;;5048568;28;20194;-77
2021/08/09 03:21:58;;;;;;;3.13;2.63;;;10.30;99.90;;;;;;5050656;28;20175;-79
2021/08/09 03:24:26;;;;;;;2.00;1.90;;;10.20;99.90;;;;;;5045216;28;20676;-76
2021/08/09 03:26:51;;;;;;;3.20;2.63;;;10.40;99.90;;;;;;5050471;28;20211;-77
2021/08/09 03:29:17;;;;;;;2.87;2.13;;;10.20;99.90;;;;;;5044921;28;20595;-77
2021/08/09 03:31:43;;;;;;;3.70;2.67;;;10.40;99.90;;;;;;5046092;28;20202;-77
2021/08/09 03:34:09;;;;;;;4.77;2.27;;;10.60;99.90;;;;;;5048595;28;20201;-77
2021/08/09 03:36:34;;;;;;;3.77;2.53;;;10.40;99.90;;;;;;5045378;28;20440;-77
2021/08/09 03:39:00;;;;;;;6.03;3.23;;;10.60;99.90;;;;;;5044785;28;20257;-77
2021/08/09 03:41:26;;;;;;;2.80;2.57;;;10.20;99.90;;;;;;5048477;28;20187;-77
2021/08/09 03:43:52;;;;;;;2.47;2.28;;;10.50;99.90;;;;;;5044779;28;20214;-77
2021/08/09 03:46:18;;;;;;;3.30;3.00;;;10.60;99.90;;;;;;5047775;28;20222;-77
2021/08/09 03:48:43;;;;;;;4.47;2.93;;;10.40;99.90;;;;;;5046433;28;20266;-77
2021/08/09 03:51:09;;;;;;;4.50;2.93;;;10.80;99.90;;;;;;5044661;28;20745;-77
2021/08/09 03:53:34;;;;;;;3.03;2.80;;;10.70;99.90;;;;;;5043135;28;20187;-78
2021/08/09 03:56:00;;;;;;;3.93;3.10;;;10.80;99.90;;;;;;5046782;28;20688;-77
2021/08/09 03:58:25;;;;;;;2.53;2.33;;;10.70;99.90;;;;;;5041626;28;20187;-77
2021/08/09 04:00:51;;;;;;;2.70;2.50;;;10.60;99.90;;;;;;5045672;28;20210;-77
2021/08/09 04:03:17;;;;;;;3.80;2.70;;;10.70;99.90;;;;;;5044673;28;20185;-77
2021/08/09 04:05:42;;;;;;;2.97;2.77;;;10.80;99.90;;;;;;5044410;28;20191;-78
2021/08/09 04:08:08;;;;;;;2.70;2.50;;;10.80;99.90;;;;;;5042978;28;20179;-78
2021/08/09 04:10:34;;;;;;;2.60;2.40;;;11.00;99.90;;;;;;5045723;28;20349;-78
2021/08/09 04:12:59;;;;;;;2.60;2.30;;;10.50;99.90;;;;;;5049300;28;20641;-78
2021/08/09 04:15:25;;;;;;;3.00;2.30;;;10.70;99.90;;;;;;5046221;28;20184;-78
2021/08/09 04:17:50;;;;;;;2.90;2.40;;;10.80;99.90;;;;;;5044235;28;20494;-78
2021/08/09 04:20:16;;;;;;;2.60;2.40;;;11.00;99.90;;;;;;5044155;28;20617;-78
2021/08/09 04:22:41;;;;;;;2.37;2.17;;;10.60;99.90;;;;;;5045277;28;20198;-78
2021/08/09 04:25:08;;;;;;;2.97;2.43;;;10.50;99.90;;;;;;5040987;28;20198;-78
2021/08/09 04:27:33;;;;;;;2.53;2.33;;;10.80;99.90;;;;;;5043994;28;20186;-78
2021/08/09 04:29:59;;;;;;;2.70;2.20;;;10.70;99.90;;;;;;5043450;28;20360;-77
2021/08/09 04:32:25;;;;;;;4.93;2.50;;;10.50;99.90;;;;;;5046090;28;20211;-77
2021/08/09 04:34:50;;;;;;;2.80;2.60;;;10.50;99.90;;;;;;5045232;28;20219;-77
2021/08/09 04:37:17;;;;;;;2.83;2.57;;;10.50;99.90;;;;;;5039270;28;20218;-77
2021/08/09 04:39:42;;;;;;;2.72;2.50;;;10.80;99.90;;;;;;5046945;28;20547;-77
2021/08/09 04:42:08;;;;;;;2.60;2.23;;;10.90;99.90;;;;;;5045557;28;20186;-77
2021/08/09 04:44:33;;;;;;;2.93;2.53;;;10.70;99.90;;;;;;5045882;28;20206;-77
2021/08/09 04:46:59;;;;;;;4.80;2.70;;;11.00;99.90;;;;;;5047146;28;20281;-79
2021/08/09 04:49:25;;;;;;;3.60;3.30;;;11.00;99.90;;;;;;5040901;28;20187;-77
2021/08/09 04:51:53;;;;;;;4.30;2.87;;;11.10;99.90;;;;;;5045085;28;20210;-77
2021/08/09 04:54:19;;;;;;;2.50;2.30;;;11.00;99.90;;;;;;5043852;28;20426;-77
2021/08/09 04:56:44;;;;;;;3.00;2.80;;;11.20;99.90;;;;;;5045572;28;20560;-77
2021/08/09 04:59:10;;;;;;;2.30;2.10;;;10.90;99.90;;;;;;5043756;28;20179;-77
2021/08/09 05:01:35;;;;;;;2.80;2.17;;;11.00;99.90;;;;;;5045786;28;20210;-76
2021/08/09 05:04:02;;;;;;;3.87;2.50;;;11.10;99.90;;;;;;5045168;28;20688;-76
2021/08/09 05:06:28;;;;;;;2.20;2.00;;;11.10;99.90;;;;;;5048846;28;20183;-77
2021/08/09 05:08:53;;;;;;;2.20;2.10;;;11.20;99.90;;;;;;5047102;28;20210;-76
2021/08/09 05:11:19;;;;;;;2.70;2.50;;;11.10;99.90;;;;;;5043742;28;20724;-77
2021/08/09 05:13:45;;;;;;;2.08;1.98;;;10.90;99.90;;;;;;5047447;28;20194;-77
2021/08/09 05:16:11;;;;;;;2.93;2.60;;;11.00;99.90;;;;;;5043285;28;20613;-77
2021/08/09 05:18:36;;;;;;;3.30;2.70;;;11.20;99.90;;;;;;5045600;28;20182;-77
2021/08/09 05:21:02;;;;;;;3.63;2.87;;;11.40;99.90;;;;;;5044137;28;20276;-77
2021/08/09 05:23:27;;;;;;;3.10;2.80;;;11.30;99.90;;;;;;5042057;28;20261;-77
2021/08/09 05:25:53;;;;;;;4.57;2.90;;;11.70;99.90;;;;;;5044835;28;20200;-77
2021/08/09 05:28:19;;;;;;;4.07;3.27;;;12.30;99.90;;;;;;5043988;28;20547;-76
2021/08/09 05:30:46;;;;;;;2.37;2.23;;;12.70;99.90;;;;;;5045217;28;20210;-76
2021/08/09 05:33:12;;;;;;;2.53;2.33;;;13.10;99.90;;;;;;5046300;28;20526;-76
2021/08/09 05:35:37;;;;;;;2.37;2.20;;;13.60;99.90;;;;;;5047285;28;20501;-76
2021/08/09 05:38:03;;;;;;;2.47;2.27;;;14.20;99.90;;;;;;5044483;28;20230;-76
2021/08/09 05:40:29;;;;;;;2.37;2.27;;;14.60;99.90;;;;;;5041511;28;20217;-76
2021/08/09 05:42:54;;;;;;;2.13;1.93;;;15.10;99.90;;;;;;5045473;28;20190;-75
2021/08/09 05:45:20;;;;;;;2.23;2.03;;;15.50;99.90;;;;;;5040066;28;20302;-77
2021/08/09 05:47:46;;;;;;;2.40;2.30;;;15.50;99.90;;;;;;5041638;28;20179;-77
2021/08/09 05:50:11;;;;;;;4.20;3.47;;;15.60;99.90;;;;;;5042953;28;20217;-75
2021/08/09 05:52:37;;;;;;;2.57;2.37;;;16.20;99.90;;;;;;5043561;28;20193;-75
2021/08/09 05:55:05;;;;;;;3.90;2.50;;;16.30;99.90;;;;;;5043672;28;20175;-75
2021/08/09 05:57:30;;;;;;;2.17;2.07;;;16.60;99.90;;;;;;5046619;28;20174;-75
2021/08/09 05:59:56;;;;;;;2.27;2.07;;;17.00;99.90;;;;;;5052135;28;20508;-75
2021/08/09 06:02:21;;;;;;;2.70;2.13;;;17.60;99.90;;;;;;5047898;28;20190;-75
2021/08/09 06:04:47;;;;;;;2.10;1.90;;;18.20;99.90;;;;;;5048762;28;20209;-76
2021/08/09 06:07:13;;;;;;;2.40;2.07;;;18.40;99.90;;;;;;5048158;28;20270;-76
2021/08/09 06:09:39;;;;;;;3.00;2.00;;;18.80;99.90;;;;;;5048277;28;20643;-77
2021/08/09 06:12:05;;;;;;;2.57;2.13;;;19.40;99.90;;;;;;5046804;28;20511;-76
2021/08/09 06:14:31;;;;;;;2.47;2.27;;;19.50;98.00;;;;;;5044923;28;20462;-76
2021/08/09 06:16:56;;;;;;;1.93;1.83;;;20.10;95.80;;;;;;5046418;28;20502;-76
2021/08/09 06:19:22;;;;;;;2.60;2.40;;;20.30;92.00;;;;;;5048004;28;20192;-76
2021/08/09 06:21:47;;;;;;;2.27;2.00;;;20.70;90.70;;;;;;5048537;28;20644;-76
2021/08/09 06:24:13;;;;;;;2.40;2.20;;;20.70;86.00;;;;;;5046748;28;20711;-75
2021/08/09 06:26:38;;;;;;;2.70;2.50;;;20.70;83.70;;;;;;5051512;28;20188;-77
2021/08/09 06:29:04;;;;;;;2.20;2.07;;;20.40;84.80;;;;;;5049745;28;20276;-77
2021/08/09 06:31:29;;;;;;;2.43;2.23;;;19.70;85.30;;;;;;5040317;28;20215;-77
2021/08/09 06:33:55;;;;;;;2.83;2.27;;;19.60;85.10;;;;;;5046288;28;20220;-77
2021/08/09 06:36:20;;;;;;;2.40;2.20;;;19.00;86.60;;;;;;5047359;28;20191;-77
2021/08/09 06:38:46;;;;;;;2.43;2.23;;;19.00;88.20;;;;;;5047558;28;20216;-77
2021/08/09 06:41:11;;;;;;;2.10;2.00;;;18.40;88.40;;;;;;5045728;28;20187;-77
2021/08/09 06:43:37;;;;;;;2.20;2.00;;;18.40;88.90;;;;;;5046876;28;20199;-77
2021/08/09 06:46:02;;;;;;;2.13;1.93;;;17.80;90.90;;;;;;5042704;28;20196;-78
2021/08/09 06:48:28;;;;;;;2.30;2.10;;;17.60;92.20;;;;;;5046413;28;20219;-76
2021/08/09 06:50:53;;;;;;;3.20;2.20;;;17.80;93.00;;;;;;5046412;28;20210;-77
2021/08/09 06:53:19;;;;;;;2.70;2.50;;;17.80;93.80;;;;;;5050033;28;20184;-76
2021/08/09 06:55:44;;;;;;;2.30;1.90;;;17.70;93.80;;;;;;5047265;28;20649;-77
2021/08/09 06:58:10;;;;;;;2.50;2.30;;;17.70;93.50;;;;;;5045633;28;20213;-77
2021/08/09 07:00:36;;;;;;;2.27;2.07;;;17.80;93.90;;;;;;5045154;28;20190;-77
2021/08/09 07:03:06;;;;;;;2.57;1.80;;;17.60;93.00;;;;;;5048248;28;20206;-77
2021/08/09 07:05:37;;;;;;;2.43;2.20;;;17.60;93.10;;;;;;5046768;28;20210;-77
2021/08/09 07:08:03;;;;;;;2.03;1.93;;;17.60;93.30;;;;;;5036481;28;20467;-77
2021/08/09 07:10:28;;;;;;;2.40;2.20;;;17.60;93.10;;;;;;5047403;28;20472;-77
2021/08/09 07:12:54;;;;;;;2.57;2.03;;;18.00;93.70;;;;;;5046517;28;20214;-77
2021/08/09 07:15:20;;;;;;;1.90;1.73;;;17.70;94.40;;;;;;5041057;28;20665;-74
2021/08/09 07:17:45;;;;;;;2.23;2.03;;;17.80;95.00;;;;;;5039978;28;20512;-74
2021/08/09 07:20:13;;;;;;;2.17;2.07;;;17.80;94.80;;;;;;5046387;28;20190;-74
2021/08/09 07:22:41;;;;;;;4.33;2.10;;;18.00;92.90;;;;;;5046849;28;20253;-73
2021/08/09 07:25:08;;;;;;;2.40;2.20;;;18.10;93.20;;;;;;5046187;28;20438;-75
2021/08/09 07:27:34;;;;;;;2.00;1.70;;;18.10;93.50;;;;;;5045925;28;20436;-75
2021/08/09 07:30:00;;;;;;;2.57;2.40;;;18.40;93.10;;;;;;5046159;28;20434;-74
2021/08/09 07:32:25;;;;;;;1.97;1.80;;;18.30;91.80;;;;;;5043127;28;20577;-74
2021/08/09 07:34:51;;;;;;;1.97;1.87;;;18.60;92.10;;;;;;5046586;28;20180;-74
2021/08/09 07:37:16;;;;;;;2.57;2.30;;;18.80;90.80;;;;;;5043751;28;20215;-84
2021/08/09 07:39:42;;;;;;;1.80;1.70;;;18.80;90.60;;;;;;5047202;28;20185;-75
2021/08/09 07:42:07;;;;;;;2.07;1.87;;;19.30;89.70;;;;;;5047716;28;20216;-74
2021/08/09 07:44:33;;;;;;;2.00;1.90;;;19.40;84.50;;;;;;5047361;28;20582;-74
2021/08/09 07:46:58;;;;;;;2.30;2.03;;;19.30;84.30;;;;;;5045820;28;20190;-75
2021/08/09 07:49:24;;;;;;;2.40;1.80;;;19.50;83.70;;;;;;5044064;28;20655;-74
2021/08/09 07:51:49;;;;;;;1.57;1.47;;;19.80;82.70;;;;;;5040624;28;20244;-74
2021/08/09 07:54:17;;;;;;;1.87;1.70;;;19.80;81.10;;;;;;5040540;28;20176;-73
2021/08/09 07:56:42;;;;;;;1.97;1.67;;;20.00;80.50;;;;;;5042832;28;20226;-75
2021/08/09 07:59:08;;;;;;;2.20;2.00;;;20.30;79.80;;;;;;5043462;28;20436;-72
2021/08/09 08:01:33;;;;;;;1.60;1.50;;;20.20;75.90;;;;;;5046021;28;20546;-75
2021/08/09 08:03:59;;;;;;;1.70;1.60;;;20.20;75.10;;;;;;5042907;28;20190;-75
2021/08/09 08:06:24;;;;;;;3.37;1.63;;;20.50;74.60;;;;;;5047274;28;20193;-73
2021/08/09 08:08:50;;;;;;;3.10;1.90;;;20.70;72.00;;;;;;5045682;28;20265;-73
2021/08/09 08:11:15;;;;;;;1.73;1.63;;;21.00;70.20;;;;;;5043537;28;20221;-74
2021/08/09 08:13:41;;;;;;;1.83;1.73;;;20.90;67.30;;;;;;5043607;28;20656;-74
2021/08/09 08:16:06;;;;;;;2.10;1.70;;;21.10;66.40;;;;;;5043302;28;20190;-74
2021/08/09 08:18:32;;;;;;;1.77;1.63;;;21.10;67.30;;;;;;5045571;28;20181;-75
2021/08/09 08:20:57;;;;;;;1.70;1.60;;;21.30;64.70;;;;;;5045437;28;20235;-74
2021/08/09 08:23:23;;;;;;;1.63;1.53;;;21.50;65.80;;;;;;5045691;28;20414;-76
2021/08/09 08:25:48;;;;;;;1.57;1.47;;;21.30;65.20;;;;;;5043434;28;20186;-74
2021/08/09 08:28:14;;;;;;;1.30;1.30;;;21.40;61.90;;;;;;5042621;28;20305;-75
2021/08/09 08:30:40;;;;;;;1.40;1.40;;;21.40;62.20;;;;;;5045274;28;20661;-74
2021/08/09 08:33:05;;;;;;;1.57;1.47;;;21.60;62.90;;;;;;5048457;28;20209;-76
2021/08/09 08:35:31;;;;;;;1.53;1.43;;;21.60;59.60;;;;;;5048406;28;20590;-75
2021/08/09 08:37:57;;;;;;;1.37;1.27;;;22.10;58.70;;;;;;5044852;28;20402;-75
2021/08/09 08:40:22;;;;;;;1.83;1.30;;;21.90;57.30;;;;;;5043288;28;20424;-74
2021/08/09 08:42:48;;;;;;;1.33;1.17;;;22.00;58.60;;;;;;5041322;28;20189;-74
2021/08/09 08:45:18;;;;;;;1.53;1.33;;;22.00;57.00;;;;;;5043050;28;20269;-73
2021/08/09 08:47:45;;;;;;;1.77;1.50;;;21.90;58.10;;;;;;5045420;28;20270;-74
2021/08/09 08:50:11;;;;;;;1.70;1.60;;;22.30;58.10;;;;;;5043172;28;20478;-75
2021/08/09 08:52:41;;;;;;;2.20;1.80;;;23.40;57.10;;;;;;5044583;28;20988;-75
2021/08/09 08:55:07;;;;;;;1.50;1.40;;;24.60;55.60;;;;;;5040042;28;20266;-75
2021/08/09 08:57:33;;;;;;;1.33;1.23;;;25.90;50.30;;;;;;5042757;28;20937;-74
2021/08/09 08:59:58;;;;;;;1.60;1.50;;;27.40;47.20;;;;;;5048298;28;20439;-74
2021/08/09 09:02:32;;;;;;;1.80;1.37;;;28.70;42.40;;;;;;5045179;28;20641;-74
2021/08/09 09:05:11;;;;;;;1.30;1.20;;;29.90;39.70;;;;;;5046742;28;20189;-74
2021/08/09 09:07:39;;;;;;;1.77;1.37;;;31.40;38.70;;;;;;5044606;28;20773;-73
2021/08/09 09:10:26;;;;;;;2.70;1.30;;;32.50;34.60;;;;;;5045000;28;20468;-74
2021/08/09 09:13:11;;;;;;;1.40;1.10;;;33.60;32.30;;;;;;5035188;28;21049;-75
2021/08/09 09:15:57;;;;;;;1.00;1.00;;;34.40;29.70;;;;;;5039343;28;20422;-74
2021/08/09 09:18:40;;;;;;;1.07;0.90;;;35.40;29.60;;;;;;5041735;28;20552;-77
2021/08/09 09:21:11;;;;;;;0.90;0.90;;;36.00;27.70;;;;;;5037283;28;20474;-74
2021/08/09 09:23:36;;;;;;;1.60;1.20;;;35.70;27.50;;;;;;5042465;28;20455;-75
2021/08/09 09:26:19;;;;;;;1.30;1.20;;;34.90;27.50;;;;;;5045563;28;20460;-75
2021/08/09 09:28:44;;;;;;;1.30;1.10;;;34.10;28.60;;;;;;5046338;28;20183;-75
2021/08/09 09:31:13;;;;;;;1.20;1.10;;;33.90;29.20;;;;;;5048309;28;20476;-75
2021/08/09 09:33:46;;;;;;;1.10;1.10;;;34.10;29.10;;;;;;5046432;28;20214;-75
2021/08/09 09:36:11;;;;;;;1.00;1.00;;;34.30;30.10;;;;;;5047055;28;20437;-75
2021/08/09 09:38:44;;;;;;;1.60;1.30;;;34.20;29.40;;;;;;5046135;28;20481;-75
2021/08/09 09:41:10;;;;;;;1.07;1.07;;;34.60;29.60;;;;;;5040289;28;20188;-75
2021/08/09 09:43:41;;;;;;;1.30;1.00;;;35.40;28.70;;;;;;5048163;28;21072;-74
2021/08/09 09:46:07;;;;;;;1.00;1.00;;;36.40;27.50;;;;;;5046057;28;20463;-75
2021/08/09 09:48:35;;;;;;;1.40;1.17;;;37.00;26.10;;;;;;5048569;28;20436;-75
2021/08/09 09:51:13;;;;;;;1.20;0.90;;;37.50;26.40;;;;;;5047709;28;20581;-75
2021/08/09 09:53:39;;;;;;;1.17;1.10;;;38.00;24.90;;;;;;5049760;28;20428;-75
2021/08/09 09:56:05;;;;;;;1.43;1.10;;;38.10;24.80;;;;;;5046723;28;20449;-76
2021/08/09 09:58:32;;;;;;;1.20;1.10;;;37.70;24.90;;;;;;5048646;28;20440;-74
2021/08/09 10:01:01;;;;;;;1.40;1.30;;;36.90;25.10;;;;;;5047784;28;20907;-75
2021/08/09 10:03:27;;;;;;;1.10;1.10;;;35.90;26.10;;;;;;5047045;28;20428;-75
2021/08/09 10:05:52;;;;;;;1.40;1.10;;;35.80;27.50;;;;;;5047419;28;20471;-75
2021/08/09 10:08:19;;;;;;;1.40;1.30;;;36.10;27.80;;;;;;5045835;28;20212;-74
2021/08/09 10:10:50;;;;;;;1.40;1.30;;;36.80;26.90;;;;;;5047682;28;20213;-74
2021/08/09 10:13:18;;;;;;;1.00;1.00;;;37.60;26.20;;;;;;5045870;28;20512;-75
2021/08/09 10:15:49;;;;;;;1.70;1.60;;;38.30;25.30;;;;;;5042405;28;20568;-77
2021/08/09 10:18:19;;;;;;;1.10;1.00;;;38.50;24.00;;;;;;5041816;28;20435;-75
2021/08/09 10:20:44;;;;;;;1.70;1.30;;;38.10;25.00;;;;;;5047466;28;20437;-75
2021/08/09 10:23:10;;;;;;;1.87;1.73;;;37.80;25.40;;;;;;5047486;28;20471;-77
2021/08/09 10:25:46;;;;;;;1.30;1.30;;;38.20;25.70;;;;;;5046649;28;20714;-79
2021/08/09 10:28:12;;;;;;;1.50;1.40;;;38.90;25.00;;;;;;5040934;28;20655;-76
2021/08/09 10:30:37;;;;;;;3.90;1.60;;;39.80;24.10;;;;;;5038598;28;21054;-76
2021/08/09 10:33:10;;;;;;;1.13;1.10;;;40.10;24.10;;;;;;5044591;28;20539;-75
2021/08/09 10:35:39;;;;;;;1.30;1.20;;;40.10;23.10;;;;;;5045324;28;20672;-75
2021/08/09 10:38:22;;;;;;;1.20;1.10;;;39.60;23.30;;;;;;5042984;28;20483;-76
2021/08/09 10:41:00;;;;;;;1.47;1.30;;;38.20;23.90;;;;;;5045604;28;20503;-76
2021/08/09 10:43:26;;;;;;;1.30;1.20;;;37.30;25.70;;;;;;5046867;28;20578;-77
2021/08/09 10:45:52;;;;;;;1.73;1.20;;;37.70;25.70;;;;;;5045327;28;20528;-77
2021/08/09 10:48:42;;;;;;;1.20;1.10;;;38.40;25.60;;;;;;5048424;28;20271;-77
2021/08/09 10:51:07;;;;;;;1.57;1.47;;;39.40;25.00;;;;;;5040860;28;20206;-77
2021/08/09 10:53:33;;;;;;;1.63;1.20;;;40.20;23.90;;;;;;5045744;28;20511;-76
2021/08/09 10:55:59;;;;;;;1.47;1.37;;;40.80;23.00;;;;;;5034153;28;20198;-76
2021/08/09 10:58:47;;;;;;;1.60;1.50;;;41.50;22.10;;;;;;5042794;28;20281;-76
2021/08/09 11:01:15;;;;;;;1.90;1.20;;;41.60;21.00;;;;;;5045471;28;20473;-75
2021/08/09 11:04:07;;;;;;;1.30;1.20;;;41.90;21.20;;;;;;5046630;28;20508;-76
2021/08/09 11:06:53;;;;;;;1.47;1.37;;;42.40;21.80;;;;;;5036401;28;20792;-76
2021/08/09 11:09:33;;;;;;;1.53;1.30;;;42.60;20.70;;;;;;5041085;28;20478;-76
2021/08/09 11:12:20;;;;;;;1.20;1.10;;;42.80;20.70;;;;;;5045218;28;20471;-76
2021/08/09 11:15:07;;;;;;;1.47;1.37;;;43.20;19.90;;;;;;5041823;28;20969;-76
2021/08/09 11:17:38;;;;;;;1.40;1.30;;;43.70;19.20;;;;;;5047046;28;20432;-76
2021/08/09 11:20:18;;;;;;;2.00;1.27;;;43.90;19.10;;;;;;5046327;28;20602;-76
2021/08/09 11:22:58;;;;;;;1.83;1.30;;;44.20;19.00;;;;;;5035719;28;20433;-75
2021/08/09 11:25:37;;;;;;;2.13;1.23;;;44.20;18.40;;;;;;5046881;28;21003;-76
2021/08/09 11:28:08;;;;;;;1.13;1.10;;;43.70;18.30;;;;;;5045835;28;20482;-76
2021/08/09 11:30:53;;;;;;;1.93;1.00;;;42.30;19.10;;;;;;5042695;28;20436;-76
2021/08/09 11:33:31;;;;;;;1.60;1.50;;;40.80;19.80;;;;;;5042712;28;20460;-75
2021/08/09 11:36:10;;;;;;;2.73;1.37;;;39.40;21.70;;;;;;5042960;28;20515;-76
2021/08/09 11:38:43;;;;;;;1.50;1.40;;;37.50;22.90;;;;;;5047762;28;20500;-76
2021/08/09 11:41:11;;;;;;;1.93;1.30;;;36.50;25.60;;;;;;5045904;28;20529;-75
2021/08/09 11:43:38;;;;;;;2.47;1.43;;;36.60;25.40;;;;;;5048042;28;20842;-76
2021/08/09 11:46:05;;;;;;;1.20;1.17;;;36.10;25.60;;;;;;5045854;28;20816;-75
2021/08/09 11:48:34;;;;;;;1.90;1.50;;;35.80;27.00;;;;;;5046399;28;21015;-75
2021/08/09 11:51:03;;;;;;;1.53;1.43;;;35.80;26.10;;;;;;5046374;28;20429;-76
2021/08/09 11:53:29;;;;;;;2.23;1.40;;;35.40;25.90;;;;;;5044695;28;20933;-74
2021/08/09 11:56:07;;;;;;;1.50;1.40;;;35.00;26.60;;;;;;5044956;28;20439;-75
2021/08/09 11:58:33;;;;;;;1.40;1.30;;;34.30;26.70;;;;;;5042500;28;20494;-75
2021/08/09 12:00:59;;;;;;;2.47;1.43;;;33.80;28.00;;;;;;5042019;28;20460;-75
2021/08/09 12:03:27;;;;;;;1.67;1.57;;;33.40;28.60;;;;;;5042362;28;20262;-74
2021/08/09 12:05:57;;;;;;;1.40;1.30;;;34.00;29.10;;;;;;5048913;28;20429;-74
2021/08/09 12:08:24;;;;;;;2.60;1.77;;;35.20;28.40;;;;;;5044488;28;21596;-75
2021/08/09 12:10:50;;;;;;;1.63;1.40;;;35.90;25.70;;;;;;5044382;28;20461;-79
2021/08/09 12:13:24;;;;;;;2.23;1.70;;;35.60;25.80;;;;;;5041537;28;20426;-75
2021/08/09 12:16:15;;;;;;;3.10;1.50;;;35.40;25.80;;;;;;5043816;28;20863;-76
2021/08/09 12:18:54;;;;;;;1.40;1.30;;;35.20;25.90;;;;;;5043276;28;20445;-75
2021/08/09 12:21:21;;;;;;;2.13;1.93;;;34.60;25.90;;;;;;5035431;28;20476;-77
2021/08/09 12:23:57;;;;;;;2.03;1.60;;;33.80;27.00;;;;;;5045054;28;20459;-74
2021/08/09 12:26:34;;;;;;;2.47;1.57;;;32.80;28.10;;;;;;5040086;28;20436;-75
2021/08/09 12:29:05;;;;;;;1.53;1.33;;;32.90;29.30;;;;;;5042176;28;20437;-74
2021/08/09 12:31:39;;;;;;;1.77;1.67;;;33.00;30.40;;;;;;5046736;28;20447;-76
2021/08/09 12:34:08;;;;;;;1.53;1.43;;;33.10;29.50;;;;;;5045573;28;20457;-75
2021/08/09 12:36:33;;;;;;;2.17;1.60;;;33.60;29.00;;;;;;5045620;28;20508;-74
2021/08/09 12:38:59;;;;;;;2.23;1.70;;;34.00;27.50;;;;;;5045053;28;20473;-75
2021/08/09 12:41:26;;;;;;;1.67;1.50;;;33.80;26.90;;;;;;5040776;28;20214;-75
2021/08/09 12:43:52;;;;;;;1.47;1.37;;;33.20;28.10;;;;;;5042014;28;20564;-76
2021/08/09 12:46:17;;;;;;;1.90;1.80;;;33.50;29.60;;;;;;5041724;28;20437;-73
2021/08/09 12:48:50;;;;;;;2.57;1.67;;;34.10;27.60;;;;;;5045244;28;20179;-74
2021/08/09 12:51:16;;;;;;;1.83;1.73;;;34.70;27.00;;;;;;5043119;28;20191;-76
2021/08/09 12:53:41;;;;;;;2.63;1.60;;;35.50;27.50;;;;;;5042963;28;20437;-74
2021/08/09 12:56:07;;;;;;;1.73;1.50;;;35.60;26.00;;;;;;5043511;28;20429;-74